Time;durP1;ratioP1;P1;durP2;ratioP2;P2;SDS_P1;SDS_P2;PMS_P1;PMS_P2;Temp;Humidity;BMP_temperature;BMP_pressure;BME280_temperature;BME280_humidity;BME280_pressure;Samples;Min_cycle;Max_cycle;Signal;HPM_P1;HPM_P2
2023/12/03 00:00:08;;;;;;;22.80;15.10;;;;;;;-0.31;100.00;98215.81;106124;1251;60422;-75
2023/12/03 00:02:36;;;;;;;23.00;16.10;;;;;;;-0.37;100.00;98221.02;106007;1251;72561;-74
2023/12/03 00:05:05;;;;;;;28.20;17.20;;;;;;;-0.30;100.00;98217.29;106243;1256;70201;-76
2023/12/03 00:07:32;;;;;;;26.10;16.90;;;;;;;-0.23;99.93;98209.36;107190;1251;71435;-75
2023/12/03 00:10:00;;;;;;;26.90;16.00;;;;;;;-0.26;100.00;98199.31;107214;1251;60441;-77
2023/12/03 00:12:29;;;;;;;28.00;17.30;;;;;;;-0.31;100.00;98193.73;107045;1251;60405;-76
2023/12/03 00:14:57;;;;;;;24.80;17.00;;;;;;;-0.35;100.00;98204.64;106904;1256;72678;-79
2023/12/03 00:17:26;;;;;;;20.90;15.30;;;;;;;-0.30;99.97;98214.81;106731;1256;68917;-76
2023/12/03 00:19:55;;;;;;;24.50;15.40;;;;;;;-0.23;100.00;98204.47;106281;1256;72970;-75
2023/12/03 00:22:22;;;;;;;25.20;17.00;;;;;;;-0.25;100.00;98190.75;106071;1251;60364;-77
2023/12/03 00:24:50;;;;;;;22.20;15.00;;;;;;;-0.32;100.00;98191.02;105887;1252;60451;-76
2023/12/03 00:27:18;;;;;;;24.60;16.80;;;;;;;-0.37;100.00;98180.34;106007;1252;73006;-76
2023/12/03 00:29:45;;;;;;;22.20;15.30;;;;;;;-0.32;100.00;98176.80;105991;1251;70285;-73
2023/12/03 00:32:13;;;;;;;22.50;16.10;;;;;;;-0.26;99.99;98177.05;105922;1254;70193;-74
2023/12/03 00:34:41;;;;;;;21.80;16.00;;;;;;;-0.28;99.98;98176.41;106108;1256;60424;-74
2023/12/03 00:37:08;;;;;;;26.30;16.60;;;;;;;-0.37;100.00;98192.15;106063;1251;60533;-76
2023/12/03 00:39:36;;;;;;;25.40;16.10;;;;;;;-0.41;100.00;98216.38;106042;1256;73901;-75
2023/12/03 00:42:04;;;;;;;19.80;15.30;;;;;;;-0.32;100.00;98222.67;105889;1251;68973;-77
2023/12/03 00:44:32;;;;;;;22.90;14.80;;;;;;;-0.19;100.00;98228.27;106012;1254;70828;-75
2023/12/03 00:47:00;;;;;;;26.50;15.60;;;;;;;-0.18;100.00;98222.81;106722;1251;60529;-74
2023/12/03 00:49:28;;;;;;;25.20;16.10;;;;;;;-0.21;100.00;98213.31;106337;1250;60590;-75
2023/12/03 00:51:56;;;;;;;30.00;17.20;;;;;;;-0.22;100.00;98211.44;106268;1253;74075;-75
2023/12/03 00:54:24;;;;;;;21.80;15.00;;;;;;;-0.15;100.00;98195.22;106189;1257;69988;-74
2023/12/03 00:56:52;;;;;;;22.60;15.70;;;;;;;-0.06;100.00;98208.48;106065;1254;71883;-75
2023/12/03 00:59:20;;;;;;;25.90;16.50;;;;;;;-0.07;100.00;98214.88;106143;1252;60555;-74
2023/12/03 01:01:47;;;;;;;26.20;16.60;;;;;;;-0.12;100.00;98239.88;106183;1256;60362;-76
2023/12/03 01:04:15;;;;;;;24.90;17.10;;;;;;;-0.15;100.00;98255.63;106038;1250;72692;-77
2023/12/03 01:06:43;;;;;;;27.60;17.30;;;;;;;-0.12;100.00;98254.01;106153;1250;70288;-75
2023/12/03 01:09:11;;;;;;;24.30;15.30;;;;;;;0.01;100.00;98261.89;106025;1256;72648;-75
2023/12/03 01:11:41;;;;;;;24.30;16.20;;;;;;;0.09;100.00;98286.72;105931;1252;60497;-76
2023/12/03 01:14:08;;;;;;;24.30;15.60;;;;;;;0.07;100.00;98290.26;106001;1251;60616;-77
2023/12/03 01:16:36;;;;;;;24.10;16.90;;;;;;;0.01;100.00;98281.39;106017;1257;73904;-76
2023/12/03 01:19:04;;;;;;;28.50;16.80;;;;;;;-0.04;100.00;98264.91;106013;1251;70183;-76
2023/12/03 01:21:32;;;;;;;23.00;15.50;;;;;;;-0.02;100.00;98256.06;105939;1257;74850;-75
2023/12/03 01:23:59;;;;;;;22.40;15.70;;;;;;;0.12;100.00;98259.48;105986;1258;60492;-76
2023/12/03 01:26:27;;;;;;;24.60;14.90;;;;;;;0.22;100.00;98247.45;106002;1250;60544;-73
2023/12/03 01:28:56;;;;;;;22.00;14.80;;;;;;;0.24;100.00;98261.73;105942;1251;73909;-74
2023/12/03 01:31:24;;;;;;;23.90;16.60;;;;;;;0.24;100.00;98254.02;105868;1256;69463;-75
2023/12/03 01:33:52;;;;;;;25.50;16.20;;;;;;;0.24;100.00;98262.77;106064;1251;72608;-74
2023/12/03 01:36:19;;;;;;;23.70;16.10;;;;;;;0.26;100.00;98235.77;106031;1253;60594;-75
2023/12/03 01:38:47;;;;;;;21.60;15.60;;;;;;;0.35;100.00;98222.23;105998;1252;60585;-75
2023/12/03 01:41:15;;;;;;;25.50;17.30;;;;;;;0.44;100.00;98225.45;106035;1251;74216;-74
2023/12/03 01:43:52;;;;;;;25.20;17.60;;;;;;;0.42;100.00;98227.21;105949;1251;68590;-78
2023/12/03 01:46:20;;;;;;;25.70;16.10;;;;;;;0.35;100.00;98215.90;106020;1257;71501;-81
2023/12/03 01:48:48;;;;;;;25.90;16.80;;;;;;;0.30;100.00;98202.98;106034;1251;61028;-76
2023/12/03 01:51:16;;;;;;;24.30;15.90;;;;;;;0.35;100.00;98171.23;106041;1251;60485;-78
2023/12/03 01:53:44;;;;;;;25.60;16.60;;;;;;;0.39;99.77;98181.05;106413;1250;73922;-81
2023/12/03 01:56:12;;;;;;;23.50;15.50;;;;;;;0.33;99.81;98186.86;106807;1258;69310;-79
2023/12/03 01:58:40;;;;;;;24.20;16.20;;;;;;;0.28;99.97;98176.58;105980;1254;71039;-77
2023/12/03 02:01:08;;;;;;;26.20;16.50;;;;;;;0.24;99.98;98177.23;106169;1257;60862;-77
2023/12/03 02:03:36;;;;;;;22.40;15.90;;;;;;;0.30;99.91;98156.88;106185;1253;60414;-79
2023/12/03 02:06:10;;;;;;;21.40;15.20;;;;;;;0.38;99.57;98155.94;108159;1252;73774;-77
2023/12/03 02:08:38;;;;;;;24.70;16.70;;;;;;;0.38;99.84;98169.00;106361;1251;68041;-78
2023/12/03 02:11:06;;;;;;;23.00;15.70;;;;;;;0.37;100.00;98189.99;106241;1251;72625;-77
2023/12/03 02:13:38;;;;;;;24.70;16.90;;;;;;;0.38;100.00;98198.45;105950;1254;60514;-76
2023/12/03 02:16:06;;;;;;;24.70;16.40;;;;;;;0.42;100.00;98199.66;106064;1256;60338;-78
2023/12/03 02:18:33;;;;;;;22.80;15.30;;;;;;;0.54;100.00;98208.63;106040;1252;72599;-80
2023/12/03 02:21:01;;;;;;;19.90;13.90;;;;;;;0.63;100.00;98216.34;106577;1251;69586;-76
2023/12/03 02:23:29;;;;;;;18.80;13.50;;;;;;;0.63;100.00;98210.44;109110;1252;71435;-76
2023/12/03 02:25:58;;;;;;;20.70;13.90;;;;;;;0.58;99.98;98201.45;106109;1251;60522;-79
2023/12/03 02:28:25;;;;;;;21.00;13.70;;;;;;;0.54;100.00;98186.48;106004;1256;60409;-82
2023/12/03 02:30:53;;;;;;;19.50;13.60;;;;;;;0.61;99.95;98173.86;106033;1259;73908;-82
2023/12/03 02:33:21;;;;;;;22.00;14.30;;;;;;;0.69;99.63;98172.79;105978;1254;69145;-82
2023/12/03 02:35:48;;;;;;;20.50;15.10;;;;;;;0.68;99.75;98156.61;105940;1255;72221;-80
2023/12/03 02:38:16;;;;;;;21.50;14.90;;;;;;;0.64;99.98;98140.95;105990;1256;60437;-82
2023/12/03 02:40:44;;;;;;;20.00;13.90;;;;;;;0.60;99.91;98104.61;106113;1251;60620;-82
2023/12/03 02:43:11;;;;;;;21.50;13.10;;;;;;;0.57;99.56;98072.48;106165;1258;72623;-80
2023/12/03 02:45:39;;;;;;;20.20;14.00;;;;;;;0.62;98.93;98084.41;107532;1256;71695;-79
2023/12/03 02:48:07;;;;;;;21.70;14.70;;;;;;;0.59;98.81;98095.30;107539;1254;70878;-80
2023/12/03 02:50:34;;;;;;;18.90;13.60;;;;;;;0.52;99.23;98090.31;106379;1258;60533;-77
2023/12/03 02:53:02;;;;;;;18.80;12.90;;;;;;;0.45;99.52;98100.03;106057;1251;60513;-76
2023/12/03 02:55:29;;;;;;;20.70;13.60;;;;;;;0.47;99.56;98093.64;105942;1251;73935;-79
2023/12/03 02:57:57;;;;;;;17.30;12.40;;;;;;;0.57;99.74;98084.77;105940;1254;72381;-79
2023/12/03 03:00:24;;;;;;;21.80;15.00;;;;;;;0.59;99.91;98075.02;105952;1251;71303;-80
2023/12/03 03:02:54;;;;;;;19.80;14.40;;;;;;;0.55;99.89;98068.99;106200;1251;60516;-81
2023/12/03 03:05:21;;;;;;;19.10;12.40;;;;;;;0.49;99.99;98072.13;106077;1251;60364;-79
2023/12/03 03:07:49;;;;;;;19.20;12.40;;;;;;;0.50;99.91;98076.66;106196;1256;72625;-78
2023/12/03 03:10:16;;;;;;;18.20;12.10;;;;;;;0.59;99.56;98088.66;106154;1252;70295;-77
2023/12/03 03:12:44;;;;;;;18.80;11.90;;;;;;;0.60;99.57;98128.64;106899;1255;70877;-79
2023/12/03 03:15:12;;;;;;;18.00;11.80;;;;;;;0.55;99.78;98183.75;106098;1251;60434;-78
2023/12/03 03:17:39;;;;;;;20.60;13.90;;;;;;;0.48;99.15;98183.25;106171;1256;60539;-80
2023/12/03 03:20:08;;;;;;;22.00;13.40;;;;;;;0.44;98.76;98161.67;106005;1251;73849;-81
2023/12/03 03:22:35;;;;;;;22.40;14.80;;;;;;;0.35;98.89;98147.67;106126;1257;69034;-81
2023/12/03 03:25:04;;;;;;;22.50;16.20;;;;;;;0.25;99.50;98130.39;106012;1257;71388;-79
2023/12/03 03:27:31;;;;;;;24.30;14.80;;;;;;;0.21;100.00;98154.33;105925;1250;60911;-79
2023/12/03 03:29:59;;;;;;;22.00;13.10;;;;;;;0.26;99.96;98165.37;105938;1252;60596;-79
2023/12/03 03:32:27;;;;;;;19.70;13.50;;;;;;;0.26;99.75;98178.44;106062;1256;73911;-80
2023/12/03 03:34:55;;;;;;;19.70;12.60;;;;;;;0.18;99.95;98193.47;106026;1251;70372;-77
2023/12/03 03:37:22;;;;;;;17.10;10.80;;;;;;;0.12;100.00;98175.55;106150;1254;72043;-79
2023/12/03 03:39:50;;;;;;;17.90;12.90;;;;;;;0.15;99.84;98146.52;106058;1251;60893;-81
2023/12/03 03:42:17;;;;;;;16.80;11.00;;;;;;;0.15;99.94;98151.02;106013;1251;60270;-80
2023/12/03 03:44:45;;;;;;;21.30;13.50;;;;;;;0.12;100.00;98171.73;106083;1251;72646;-83
2023/12/03 03:47:13;;;;;;;18.50;13.40;;;;;;;0.09;100.00;98172.04;106089;1252;72425;-83
2023/12/03 03:49:41;;;;;;;19.40;12.90;;;;;;;0.05;100.00;98193.59;106000;1256;72745;-82
2023/12/03 03:52:08;;;;;;;18.40;12.10;;;;;;;0.11;100.00;98146.03;105944;1251;60845;-81
2023/12/03 03:54:40;;;;;;;17.80;11.70;;;;;;;0.18;100.00;98153.09;106201;1256;60380;-81
2023/12/03 03:57:08;;;;;;;18.00;12.10;;;;;;;0.18;100.00;98155.01;108874;1251;73122;-79
2023/12/03 03:59:36;;;;;;;20.70;13.00;;;;;;;0.11;100.00;98146.39;108928;1256;68744;-81
2023/12/03 04:02:04;;;;;;;16.70;12.00;;;;;;;0.08;100.00;98142.00;106249;1250;71205;-80
2023/12/03 04:04:31;;;;;;;17.80;12.00;;;;;;;0.16;100.00;98137.71;106232;1256;60468;-79
2023/12/03 04:06:59;;;;;;;20.00;13.50;;;;;;;0.26;100.00;98153.02;106579;1251;60998;-80
2023/12/03 04:09:27;;;;;;;18.00;12.90;;;;;;;0.27;100.00;98173.33;107110;1251;72815;-78
2023/12/03 04:11:54;;;;;;;22.30;13.40;;;;;;;0.25;100.00;98166.76;106648;1251;70583;-80
2023/12/03 04:14:22;;;;;;;20.70;12.30;;;;;;;0.26;100.00;98172.77;106452;1254;72659;-77
2023/12/03 04:16:50;;;;;;;30.60;18.90;;;;;;;0.28;100.00;98187.53;106039;1253;60446;-78
2023/12/03 04:19:17;;;;;;;20.10;13.70;;;;;;;0.16;100.00;98190.88;106721;1251;60418;-79
2023/12/03 04:21:45;;;;;;;20.60;12.60;;;;;;;0.03;100.00;98187.33;108114;1250;72572;-80
2023/12/03 04:24:13;;;;;;;22.10;13.30;;;;;;;0.07;100.00;98193.95;108161;1251;69021;-80
2023/12/03 04:26:44;;;;;;;20.50;13.40;;;;;;;0.11;100.00;98193.01;106187;1254;72464;-79
2023/12/03 04:29:11;;;;;;;19.40;12.70;;;;;;;0.07;100.00;98180.87;106090;1253;60599;-77
2023/12/03 04:31:39;;;;;;;21.70;13.50;;;;;;;0.02;100.00;98194.75;106035;1257;60370;-78
2023/12/03 04:34:07;;;;;;;19.40;12.00;;;;;;;0.07;100.00;98189.63;106064;1251;73734;-78
2023/12/03 04:36:35;;;;;;;20.50;13.00;;;;;;;0.08;100.00;98187.41;105997;1256;69022;-79
2023/12/03 04:39:04;;;;;;;22.40;15.80;;;;;;;0.04;100.00;98189.91;106004;1251;71616;-79
2023/12/03 04:41:36;;;;;;;22.70;13.90;;;;;;;0.07;100.00;98193.10;106008;1256;60408;-77
2023/12/03 04:44:07;;;;;;;26.90;14.70;;;;;;;0.11;100.00;98183.95;105953;1251;60492;-77
2023/12/03 04:46:34;;;;;;;23.20;13.80;;;;;;;0.06;100.00;98182.73;106014;1251;72671;-82
2023/12/03 04:49:02;;;;;;;22.30;14.40;;;;;;;0.04;100.00;98188.09;105774;1262;68814;-80
2023/12/03 04:51:29;;;;;;;26.20;17.90;;;;;;;0.12;100.00;98184.23;105907;1252;71691;-81
2023/12/03 04:53:57;;;;;;;25.40;15.60;;;;;;;0.11;100.00;98189.57;106028;1251;60421;-79
2023/12/03 04:56:24;;;;;;;23.60;14.20;;;;;;;0.06;100.00;98190.39;106101;1256;60370;-79
2023/12/03 04:58:52;;;;;;;21.70;13.20;;;;;;;0.11;100.00;98190.27;106816;1251;73871;-79
2023/12/03 05:01:19;;;;;;;29.50;20.60;;;;;;;0.17;100.00;98181.17;108468;1251;69044;-79
2023/12/03 05:03:47;;;;;;;23.60;16.30;;;;;;;0.17;100.00;98186.09;106220;1253;72692;-79
2023/12/03 05:06:15;;;;;;;22.70;14.40;;;;;;;0.17;100.00;98170.91;106042;1256;61281;-81
2023/12/03 05:08:43;;;;;;;24.90;14.90;;;;;;;0.21;100.00;98174.60;108129;1251;60236;-80
2023/12/03 05:11:10;;;;;;;24.20;14.50;;;;;;;0.15;100.00;98177.50;107725;1251;72707;-80
2023/12/03 05:13:38;;;;;;;22.50;15.60;;;;;;;0.17;100.00;98176.84;105968;1251;70004;-81
2023/12/03 05:16:06;;;;;;;24.00;15.20;;;;;;;0.24;100.00;98181.30;106082;1256;71501;-79
2023/12/03 05:18:33;;;;;;;23.70;14.00;;;;;;;0.26;100.00;98183.50;106196;1252;60308;-82
2023/12/03 05:21:02;;;;;;;26.70;15.30;;;;;;;0.21;100.00;98190.77;106113;1251;60505;-81
2023/12/03 05:23:30;;;;;;;22.10;15.60;;;;;;;0.24;100.00;98185.10;106317;1252;72979;-80
2023/12/03 05:25:57;;;;;;;23.40;16.50;;;;;;;0.26;100.00;98184.52;106774;1256;70141;-78
2023/12/03 05:28:25;;;;;;;21.40;12.60;;;;;;;0.23;100.00;98186.55;107055;1257;71415;-78
2023/12/03 05:30:52;;;;;;;18.00;11.80;;;;;;;0.27;100.00;98187.98;106704;1251;60428;-77
2023/12/03 05:33:20;;;;;;;18.20;11.50;;;;;;;0.34;100.00;98198.48;107342;1256;60416;-78
2023/12/03 05:35:48;;;;;;;17.10;10.70;;;;;;;0.35;100.00;98203.60;108058;1251;72837;-78
2023/12/03 05:38:15;;;;;;;15.80;10.80;;;;;;;0.42;100.00;98211.51;106156;1256;68712;-79
2023/12/03 05:40:43;;;;;;;17.80;11.50;;;;;;;0.48;100.00;98208.98;106148;1251;72679;-79
2023/12/03 05:43:10;;;;;;;16.90;11.20;;;;;;;0.52;100.00;98216.27;106048;1257;60492;-80
2023/12/03 05:45:38;;;;;;;19.00;11.90;;;;;;;0.55;100.00;98221.77;105993;1250;60373;-79
2023/12/03 05:48:06;;;;;;;17.70;12.30;;;;;;;0.57;100.00;98229.43;106127;1257;74233;-76
2023/12/03 05:50:34;;;;;;;17.30;11.30;;;;;;;0.53;100.00;98235.33;106091;1257;67786;-78
2023/12/03 05:53:02;;;;;;;16.30;10.70;;;;;;;0.54;100.00;98232.30;106563;1253;72719;-81
2023/12/03 05:55:30;;;;;;;15.60;11.00;;;;;;;0.58;100.00;98232.59;107583;1252;61134;-80
2023/12/03 05:57:57;;;;;;;14.60;10.70;;;;;;;0.60;100.00;98223.76;107346;1256;60344;-79
2023/12/03 06:00:25;;;;;;;13.90;10.50;;;;;;;0.64;100.00;98225.83;106704;1252;72747;-82
2023/12/03 06:02:52;;;;;;;15.90;10.30;;;;;;;0.71;100.00;98239.14;107044;1256;68815;-84
2023/12/03 06:05:20;;;;;;;15.00;10.30;;;;;;;0.73;100.00;98252.86;107125;1254;72268;-83
2023/12/03 06:07:48;;;;;;;14.10;10.60;;;;;;;0.73;100.00;98256.85;107321;1256;60357;-84
2023/12/03 06:10:15;;;;;;;15.80;12.10;;;;;;;0.79;100.00;98258.81;108027;1254;59272;-83
2023/12/03 06:12:43;;;;;;;17.90;11.80;;;;;;;0.83;100.00;98262.93;107930;1256;72571;-80
2023/12/03 06:15:10;;;;;;;15.80;10.20;;;;;;;0.80;100.00;98277.55;107220;1256;69096;-78
2023/12/03 06:17:38;;;;;;;13.60;10.40;;;;;;;0.80;100.00;98283.57;106558;1256;71476;-81
2023/12/03 06:20:07;;;;;;;16.50;11.10;;;;;;;0.84;100.00;98285.85;106682;1256;60489;-81
2023/12/03 06:22:36;;;;;;;15.70;10.70;;;;;;;0.85;100.00;98283.02;106653;1251;59374;-83
2023/12/03 06:25:04;;;;;;;12.60;10.00;;;;;;;0.84;100.00;98290.27;106105;1256;73900;-77
2023/12/03 06:27:32;;;;;;;12.90;9.30;;;;;;;0.77;100.00;98296.11;106375;1251;70229;-80
2023/12/03 06:29:59;;;;;;;15.00;10.50;;;;;;;0.80;100.00;98310.63;106234;1252;72520;-78
2023/12/03 06:32:27;;;;;;;14.40;9.80;;;;;;;0.79;100.00;98307.08;105954;1256;60434;-77
2023/12/03 06:34:55;;;;;;;12.10;9.10;;;;;;;0.75;100.00;98306.89;105929;1257;60540;-78
2023/12/03 06:37:22;;;;;;;12.80;9.10;;;;;;;0.81;100.00;98307.87;106039;1251;74299;-81
2023/12/03 06:39:50;;;;;;;13.80;9.90;;;;;;;0.84;100.00;98304.33;106012;1253;69010;-77
2023/12/03 06:42:18;;;;;;;13.40;9.70;;;;;;;0.78;100.00;98310.66;105965;1256;73688;-78
2023/12/03 06:44:45;;;;;;;12.30;8.80;;;;;;;0.75;100.00;98315.07;106047;1257;60882;-78
2023/12/03 06:47:13;;;;;;;12.40;9.10;;;;;;;0.84;100.00;98316.61;106345;1251;60491;-77
2023/12/03 06:49:41;;;;;;;14.20;10.00;;;;;;;0.84;100.00;98321.79;106909;1251;73905;-79
2023/12/03 06:52:09;;;;;;;13.40;8.80;;;;;;;0.77;100.00;98327.64;107740;1252;70292;-79
2023/12/03 06:54:37;;;;;;;12.50;8.80;;;;;;;0.81;100.00;98333.02;106324;1256;71438;-78
2023/12/03 06:57:06;;;;;;;12.90;9.00;;;;;;;0.87;100.00;98336.29;105875;1257;247652;-80
2023/12/03 07:01:45;;;;;;;14.50;9.20;;;;;;;0.84;100.00;98342.90;102951;1294;599669;-81
2023/12/03 07:04:13;;;;;;;11.90;9.30;;;;;;;0.87;100.00;98353.42;105303;1270;62094;-79
2023/12/03 07:06:41;;;;;;;11.60;8.50;;;;;;;0.92;100.00;98352.24;105368;1269;59419;-77
2023/12/03 07:09:11;;;;;;;11.90;8.10;;;;;;;0.86;100.00;98362.36;106826;1261;71001;-78
2023/12/03 07:11:59;;;;;;;9.20;7.10;;;;;;;0.87;100.00;98360.41;106947;1259;70062;-77
2023/12/03 07:14:26;;;;;;;11.80;8.60;;;;;;;0.92;100.00;98362.35;105442;1264;171635;-79
2023/12/03 07:16:54;;;;;;;11.50;8.60;;;;;;;0.89;100.00;98371.35;105605;1257;59285;-78
2023/12/03 07:19:22;;;;;;;11.20;7.60;;;;;;;0.84;100.00;98375.28;105498;1257;59438;-79
2023/12/03 07:21:49;;;;;;;12.20;8.40;;;;;;;0.88;100.00;98369.02;105890;1254;70732;-79
2023/12/03 07:24:17;;;;;;;10.30;7.60;;;;;;;0.94;100.00;98373.52;105631;1260;70833;-77
2023/12/03 07:26:44;;;;;;;9.30;6.60;;;;;;;0.89;100.00;98373.90;105898;1259;72407;-78
2023/12/03 07:29:12;;;;;;;10.00;6.80;;;;;;;0.92;100.00;98374.21;105667;1260;59575;-78
2023/12/03 07:31:40;;;;;;;8.20;5.10;;;;;;;1.00;100.00;98380.77;105561;1255;60032;-79
2023/12/03 07:34:07;;;;;;;10.10;6.70;;;;;;;1.01;100.00;98382.81;105731;1254;71888;-79
2023/12/03 07:36:35;;;;;;;8.30;5.90;;;;;;;0.95;100.00;98387.66;105752;1257;69448;-80
2023/12/03 07:39:03;;;;;;;6.90;5.20;;;;;;;1.01;99.19;98397.10;105781;1259;72723;-79
2023/12/03 07:41:31;;;;;;;8.60;6.30;;;;;;;1.08;99.05;98397.69;105836;1254;59610;-78
2023/12/03 07:43:59;;;;;;;7.40;5.30;;;;;;;1.04;98.47;98396.00;105640;1256;60147;-80
2023/12/03 07:46:26;;;;;;;10.20;6.10;;;;;;;0.97;98.06;98399.14;105590;1260;72738;-80
2023/12/03 07:48:54;;;;;;;7.10;5.50;;;;;;;1.01;97.66;98402.33;105821;1259;68944;-80
2023/12/03 07:51:21;;;;;;;6.50;5.10;;;;;;;0.99;97.27;98410.48;105763;1259;71477;-79
2023/12/03 07:53:49;;;;;;;7.10;5.10;;;;;;;0.92;97.30;98415.88;105746;1254;59711;-81
2023/12/03 07:56:17;;;;;;;5.90;4.20;;;;;;;0.93;97.49;98417.20;105843;1255;59781;-78
2023/12/03 07:58:44;;;;;;;6.80;5.30;;;;;;;0.96;97.32;98429.42;105768;1254;70565;-78
2023/12/03 08:01:12;;;;;;;6.80;5.00;;;;;;;0.92;97.77;98432.37;105536;1258;70201;-78
2023/12/03 08:03:40;;;;;;;8.20;5.40;;;;;;;0.90;97.75;98445.28;105642;1257;71410;-78
2023/12/03 08:06:08;;;;;;;8.20;5.70;;;;;;;0.99;97.50;98446.46;105489;1263;59679;-77
2023/12/03 08:08:36;;;;;;;4.90;4.00;;;;;;;1.00;97.08;98454.39;105837;1258;59639;-76
2023/12/03 08:11:04;;;;;;;5.50;4.10;;;;;;;0.94;96.96;98458.54;106722;1257;72914;-81
2023/12/03 08:13:32;;;;;;;6.00;4.10;;;;;;;0.98;96.71;98464.30;106520;1258;71161;-77
2023/12/03 08:16:03;;;;;;;6.30;4.10;;;;;;;1.04;96.03;98467.85;106275;1254;72323;-74
2023/12/03 08:18:31;;;;;;;5.50;4.60;;;;;;;0.99;96.41;98467.71;106038;1264;59551;-78
2023/12/03 08:20:59;;;;;;;5.10;4.00;;;;;;;0.94;96.54;98475.14;105842;1256;59698;-77
2023/12/03 08:23:27;;;;;;;6.50;4.00;;;;;;;1.00;96.38;98477.54;105657;1255;71908;-76
2023/12/03 08:25:55;;;;;;;7.60;5.00;;;;;;;1.05;96.20;98479.70;105767;1256;69699;-80
2023/12/03 08:28:23;;;;;;;5.50;4.00;;;;;;;0.99;96.08;98484.29;105696;1258;72462;-78
2023/12/03 08:30:50;;;;;;;6.10;3.80;;;;;;;0.93;96.06;98482.39;105715;1259;59611;-77
2023/12/03 08:33:18;;;;;;;5.50;4.40;;;;;;;0.97;95.84;98486.83;105655;1257;60799;-76
2023/12/03 08:35:47;;;;;;;5.90;5.00;;;;;;;0.95;96.16;98493.11;105711;1257;71593;-78
2023/12/03 08:38:14;;;;;;;6.40;4.50;;;;;;;0.89;96.32;98497.39;105634;1257;70317;-76
2023/12/03 08:40:42;;;;;;;4.70;3.90;;;;;;;0.90;96.08;98512.11;105686;1258;70495;-77
2023/12/03 08:43:09;;;;;;;5.40;4.00;;;;;;;0.95;94.90;98521.89;105831;1258;59695;-75
2023/12/03 08:45:37;;;;;;;7.80;4.80;;;;;;;0.89;94.64;98526.84;105953;1260;60851;-74
2023/12/03 08:48:05;;;;;;;8.40;5.80;;;;;;;0.80;94.79;98528.00;105802;1254;73039;-78
2023/12/03 08:50:33;;;;;;;6.50;4.60;;;;;;;0.81;94.60;98526.27;105624;1257;68710;-75
2023/12/03 08:53:00;;;;;;;6.00;4.80;;;;;;;0.83;93.45;98529.83;105656;1258;72944;-76
2023/12/03 08:55:28;;;;;;;6.90;5.10;;;;;;;0.74;93.79;98535.48;105639;1261;59721;-75
2023/12/03 08:57:55;;;;;;;7.30;5.20;;;;;;;0.69;94.28;98543.80;105686;1256;60079;-77
2023/12/03 09:00:23;;;;;;;7.20;5.70;;;;;;;0.76;93.27;98551.95;105655;1258;72808;-78
2023/12/03 09:02:51;;;;;;;7.50;5.10;;;;;;;0.76;92.66;98563.56;105597;1257;69067;-77
2023/12/03 09:05:18;;;;;;;9.10;6.00;;;;;;;0.66;92.73;98554.85;105668;1260;70921;-78
2023/12/03 09:07:46;;;;;;;11.20;7.10;;;;;;;0.62;93.17;98556.20;105650;1260;59697;-78
2023/12/03 09:10:14;;;;;;;11.90;8.40;;;;;;;0.66;92.52;98578.69;105853;1254;59673;-79
2023/12/03 09:12:42;;;;;;;11.30;7.70;;;;;;;0.59;92.10;98577.34;105856;1253;71836;-77
2023/12/03 09:15:10;;;;;;;8.20;6.00;;;;;;;0.48;92.49;98590.35;105895;1260;69221;-76
2023/12/03 09:17:37;;;;;;;10.60;7.20;;;;;;;0.45;92.03;98597.23;105713;1255;72646;-77
2023/12/03 09:20:06;;;;;;;11.30;8.20;;;;;;;0.46;91.64;98598.20;105841;1254;60356;-78
2023/12/03 09:22:34;;;;;;;12.90;8.90;;;;;;;0.36;91.52;98600.30;106204;1256;59534;-75
2023/12/03 09:25:01;;;;;;;9.90;7.70;;;;;;;0.24;91.82;98609.80;106038;1252;73055;-75
2023/12/03 09:27:29;;;;;;;11.30;8.20;;;;;;;0.25;91.78;98614.63;105912;1253;70238;-76
2023/12/03 09:29:57;;;;;;;11.90;8.80;;;;;;;0.24;92.47;98627.23;105860;1253;70697;-79
2023/12/03 09:32:25;;;;;;;11.10;8.40;;;;;;;0.17;92.79;98636.01;105886;1253;59706;-79
2023/12/03 09:34:52;;;;;;;10.10;7.70;;;;;;;0.08;92.55;98641.98;106042;1254;59670;-81
2023/12/03 09:37:20;;;;;;;11.40;7.70;;;;;;;0.08;92.47;98647.75;106377;1254;73716;-82
2023/12/03 09:39:47;;;;;;;13.00;8.90;;;;;;;0.08;92.20;98655.94;106004;1254;69221;-82
2023/12/03 09:42:17;;;;;;;14.70;10.00;;;;;;;-0.03;92.49;98668.46;105896;1261;71374;-81
2023/12/03 09:44:57;;;;;;;13.30;8.80;;;;;;;-0.12;92.58;98669.72;105835;1257;59648;-82
2023/12/03 09:47:25;;;;;;;12.80;9.80;;;;;;;-0.10;92.62;98669.73;105899;1254;59637;-81
2023/12/03 09:49:56;;;;;;;12.10;9.40;;;;;;;-0.12;92.43;98678.63;105738;1259;73041;-79
2023/12/03 09:52:24;;;;;;;12.80;9.70;;;;;;;-0.22;92.64;98675.08;105728;1260;69009;-81
2023/12/03 09:54:53;;;;;;;14.10;9.90;;;;;;;-0.28;92.53;98688.27;105848;1259;72181;-84
2023/12/03 09:57:22;;;;;;;13.70;9.70;;;;;;;-0.25;92.17;98698.63;106211;1259;59726;-81
2023/12/03 09:59:49;;;;;;;13.90;10.20;;;;;;;-0.28;91.88;98694.87;105662;1254;59747;-81
2023/12/03 10:02:17;;;;;;;13.60;9.80;;;;;;;-0.39;91.95;98713.70;105873;1257;73146;-82
2023/12/03 10:04:45;;;;;;;12.60;8.90;;;;;;;-0.46;91.43;98719.11;106789;1253;72208;-83
2023/12/03 10:07:12;;;;;;;11.60;9.30;;;;;;;-0.43;91.27;98729.12;107245;1253;72437;-83
2023/12/03 10:09:40;;;;;;;14.40;10.20;;;;;;;-0.46;91.08;98734.63;105981;1254;59615;-84
2023/12/03 10:12:09;;;;;;;13.90;9.60;;;;;;;-0.56;91.49;98735.08;105839;1257;59515;-83
2023/12/03 10:14:37;;;;;;;11.90;8.80;;;;;;;-0.54;91.57;98740.67;106204;1257;72114;-84
2023/12/03 10:17:04;;;;;;;14.80;10.70;;;;;;;-0.52;90.98;98734.27;106270;1257;70289;-83
2023/12/03 10:19:32;;;;;;;13.20;8.90;;;;;;;-0.64;90.79;98741.95;106138;1253;72449;-83
2023/12/03 10:21:59;;;;;;;11.90;7.80;;;;;;;-0.71;90.23;98732.38;109182;1253;59715;-82
2023/12/03 10:24:27;;;;;;;11.60;8.40;;;;;;;-0.66;90.16;98742.08;106894;1254;59545;-83
2023/12/03 10:26:56;;;;;;;14.70;9.90;;;;;;;-0.69;90.20;98739.73;106161;1253;71493;-83
2023/12/03 10:29:23;;;;;;;11.80;8.70;;;;;;;-0.78;90.28;98745.45;106088;1253;69227;-84
2023/12/03 10:31:51;;;;;;;9.80;7.80;;;;;;;-0.73;90.33;98767.33;106398;1254;73030;-85
2023/12/03 10:34:23;;;;;;;11.30;8.20;;;;;;;-0.65;89.66;98763.73;106393;1254;59696;-81
2023/12/03 10:36:52;;;;;;;10.40;7.90;;;;;;;-0.72;89.11;98773.88;106352;1257;59689;-84
2023/12/03 10:39:20;;;;;;;9.70;6.80;;;;;;;-0.83;89.07;98782.20;106725;1256;72746;-83
2023/12/03 10:41:51;;;;;;;9.60;6.70;;;;;;;-0.80;88.74;98803.35;106372;1253;68439;-83
2023/12/03 10:44:21;;;;;;;9.00;6.10;;;;;;;-0.76;87.96;98812.41;106328;1253;72741;-82
2023/12/03 10:46:50;;;;;;;9.90;6.80;;;;;;;-0.83;87.76;98817.34;106616;1254;61224;-82
2023/12/03 10:49:17;;;;;;;9.40;6.50;;;;;;;-0.94;87.63;98814.73;106923;1252;60021;-84
2023/12/03 10:51:47;;;;;;;10.50;7.10;;;;;;;-0.89;87.96;98821.61;107372;1253;73117;-81
2023/12/03 10:54:16;;;;;;;10.40;7.20;;;;;;;-0.88;87.92;98826.75;108531;1258;68731;-82
2023/12/03 10:56:45;;;;;;;11.90;6.90;;;;;;;-0.96;88.11;98837.92;107898;1253;71402;-81
2023/12/03 10:59:13;;;;;;;10.50;7.70;;;;;;;-0.97;88.10;98838.59;107779;1253;59753;-82
2023/12/03 11:01:47;;;;;;;8.50;7.00;;;;;;;-0.89;88.06;98845.77;106997;1253;60055;-85
2023/12/03 11:04:28;;;;;;;9.70;8.00;;;;;;;-0.93;88.39;98853.70;106669;1254;72353;-81
2023/12/03 11:06:58;;;;;;;10.30;7.00;;;;;;;-0.99;88.14;98848.81;106139;1253;69302;-78
2023/12/03 11:09:26;;;;;;;10.60;7.80;;;;;;;-0.98;87.65;98853.95;106063;1254;73896;-78
2023/12/03 11:11:54;;;;;;;10.70;7.90;;;;;;;-0.91;87.56;98867.52;106535;1253;60467;-79
2023/12/03 11:14:22;;;;;;;12.00;8.80;;;;;;;-1.01;87.53;98865.77;106606;1253;60414;-78
2023/12/03 11:17:11;;;;;;;9.70;6.80;;;;;;;-1.10;87.02;98883.18;108342;1252;72586;-78
2023/12/03 11:19:39;;;;;;;11.10;8.30;;;;;;;-1.06;87.59;98885.77;106179;1257;71388;-79